Time;durP1;ratioP1;P1;durP2;ratioP2;P2;SDS_P1;SDS_P2;PMS_P1;PMS_P2;Temp;Humidity;BMP_temperature;BMP_pressure;BME280_temperature;BME280_humidity;BME280_pressure;Samples;Min_cycle;Max_cycle;Signal;HPM_P1;HPM_P2
2022/01/05 00:00:49;;;;;;;4.50;3.70;;;7.10;99.90;;;;;;2107069;28;20043;-70
2022/01/05 00:01:50;;;;;;;5.72;3.58;;;7.10;99.90;;;;;;2105283;28;20012;-71
2022/01/05 00:02:51;;;;;;;4.00;3.25;;;7.10;99.90;;;;;;2113032;27;20019;-69
2022/01/05 00:03:52;;;;;;;5.72;3.35;;;7.10;99.90;;;;;;2108699;27;20073;-69
2022/01/05 00:04:53;;;;;;;4.75;3.72;;;7.10;99.90;;;;;;2105812;28;20107;-70
2022/01/05 00:05:54;;;;;;;3.88;3.47;;;7.10;99.90;;;;;;2104669;28;20149;-69
2022/01/05 00:06:55;;;;;;;4.78;3.60;;;7.10;99.90;;;;;;2109479;28;20487;-69
2022/01/05 00:07:55;;;;;;;4.72;3.67;;;7.10;99.90;;;;;;2106327;28;20032;-68
2022/01/05 00:08:58;;;;;;;5.68;4.00;;;7.10;99.90;;;;;;2100558;28;20070;-68
2022/01/05 00:10:00;;;;;;;5.63;3.90;;;7.10;99.90;;;;;;2098941;28;20017;-68
2022/01/05 00:11:00;;;;;;;5.22;3.90;;;7.10;99.90;;;;;;2099415;28;20174;-67
2022/01/05 00:12:02;;;;;;;4.55;3.75;;;7.10;99.90;;;;;;2104888;28;20074;-70
2022/01/05 00:13:03;;;;;;;5.28;4.05;;;7.10;99.90;;;;;;2106067;28;20043;-68
2022/01/05 00:14:04;;;;;;;4.72;3.80;;;7.10;99.90;;;;;;2104564;28;20016;-69
2022/01/05 00:15:06;;;;;;;6.97;3.90;;;7.10;99.90;;;;;;2106444;28;20044;-69
2022/01/05 00:16:07;;;;;;;4.95;3.85;;;7.10;99.90;;;;;;2100060;28;20071;-69
2022/01/05 00:17:07;;;;;;;4.93;3.95;;;7.10;99.90;;;;;;2105542;28;20032;-68
2022/01/05 00:18:08;;;;;;;5.35;3.90;;;7.10;99.90;;;;;;2107573;28;20032;-68
2022/01/05 00:19:09;;;;;;;6.72;3.60;;;7.10;99.90;;;;;;2105414;28;20036;-68
2022/01/05 00:20:11;;;;;;;6.20;3.80;;;7.10;99.90;;;;;;2104606;28;20035;-68
2022/01/05 00:21:11;;;;;;;5.18;4.10;;;7.10;99.90;;;;;;2107519;28;20024;-68
2022/01/05 00:22:12;;;;;;;4.85;3.83;;;7.10;99.90;;;;;;2104597;28;20506;-69
2022/01/05 00:23:13;;;;;;;4.75;3.78;;;7.10;99.90;;;;;;2097342;28;20020;-69
2022/01/05 00:24:14;;;;;;;4.38;3.67;;;7.10;99.90;;;;;;2105599;28;20058;-70
2022/01/05 00:25:15;;;;;;;6.28;3.90;;;7.10;99.90;;;;;;2105454;28;20032;-67
2022/01/05 00:26:16;;;;;;;5.07;3.65;;;7.10;99.90;;;;;;2106673;28;20402;-68
2022/01/05 00:27:17;;;;;;;5.38;3.78;;;7.10;99.90;;;;;;2107270;28;20024;-68
2022/01/05 00:28:18;;;;;;;5.00;3.75;;;7.10;99.90;;;;;;2104441;28;20122;-69
2022/01/05 00:29:19;;;;;;;4.18;3.58;;;7.10;99.90;;;;;;2105612;28;20020;-70
2022/01/05 00:30:26;;;;;;;3.80;3.42;;;7.10;99.90;;;;;;2104905;28;20055;-67
2022/01/05 00:31:27;;;;;;;4.35;3.65;;;7.10;99.90;;;;;;2104302;28;20046;-68
2022/01/05 00:32:28;;;;;;;4.70;3.50;;;7.10;99.90;;;;;;2104304;28;20035;-69
2022/01/05 00:33:29;;;;;;;4.60;3.40;;;7.10;99.90;;;;;;2090579;28;20049;-68
2022/01/05 00:34:30;;;;;;;4.75;3.10;;;7.10;99.90;;;;;;2092091;28;20090;-70
2022/01/05 00:35:30;;;;;;;4.03;3.08;;;7.10;99.90;;;;;;2101740;28;20403;-69
2022/01/05 00:36:31;;;;;;;5.47;3.38;;;7.10;99.90;;;;;;2108187;28;20031;-68
2022/01/05 00:37:32;;;;;;;4.22;3.10;;;7.10;99.90;;;;;;2106113;28;20020;-69
2022/01/05 00:38:34;;;;;;;4.43;3.20;;;7.10;99.90;;;;;;2098173;28;20020;-70
2022/01/05 00:39:35;;;;;;;3.17;2.88;;;7.10;99.90;;;;;;2103850;28;20028;-68
2022/01/05 00:40:36;;;;;;;5.72;3.10;;;7.10;99.90;;;;;;2099577;28;20140;-69
2022/01/05 00:41:40;;;;;;;3.17;2.88;;;7.10;99.90;;;;;;2108824;28;20032;-69
2022/01/05 00:42:41;;;;;;;3.53;2.70;;;7.10;99.90;;;;;;2105790;28;20892;-68
2022/01/05 00:43:42;;;;;;;3.38;2.65;;;7.10;99.90;;;;;;2104292;28;20051;-69
2022/01/05 00:44:42;;;;;;;3.10;2.80;;;7.10;99.90;;;;;;2112778;28;20015;-69
2022/01/05 00:45:43;;;;;;;3.20;2.50;;;7.10;99.90;;;;;;2113041;28;20028;-68
2022/01/05 00:46:44;;;;;;;3.00;2.67;;;7.10;99.90;;;;;;2104408;28;20130;-69
2022/01/05 00:47:45;;;;;;;2.85;2.60;;;7.10;99.90;;;;;;2104563;28;20020;-67
2022/01/05 00:48:46;;;;;;;3.03;2.40;;;7.10;99.90;;;;;;2104021;28;20091;-69
2022/01/05 00:49:47;;;;;;;2.67;2.47;;;7.10;99.90;;;;;;2105152;28;20446;-70
2022/01/05 00:50:48;;;;;;;2.60;2.40;;;7.10;99.90;;;;;;2104134;28;20027;-69
2022/01/05 00:51:49;;;;;;;4.03;2.60;;;7.10;99.90;;;;;;2105361;28;20101;-69
2022/01/05 00:52:50;;;;;;;2.85;2.55;;;7.10;99.90;;;;;;2103810;28;20521;-69
2022/01/05 00:53:51;;;;;;;3.40;2.50;;;7.10;99.90;;;;;;2105609;28;20056;-69
2022/01/05 00:54:52;;;;;;;2.50;2.30;;;7.10;99.90;;;;;;2104324;28;20024;-69
2022/01/05 00:55:53;;;;;;;3.38;2.50;;;7.10;99.90;;;;;;2096746;28;20031;-68
2022/01/05 00:56:54;;;;;;;2.72;2.20;;;7.10;99.90;;;;;;2094668;28;20050;-68
2022/01/05 00:57:56;;;;;;;2.25;2.08;;;7.10;99.90;;;;;;2095315;28;20078;-70
2022/01/05 00:58:58;;;;;;;2.63;2.20;;;7.10;99.90;;;;;;2096941;28;20431;-69
2022/01/05 00:59:59;;;;;;;2.60;2.00;;;7.10;99.90;;;;;;2106607;28;20020;-69
2022/01/05 01:01:00;;;;;;;2.15;1.95;;;7.10;99.90;;;;;;2100128;28;20455;-70
2022/01/05 01:02:00;;;;;;;3.08;2.40;;;7.10;99.90;;;;;;2098105;28;20051;-70
2022/01/05 01:03:02;;;;;;;2.70;2.13;;;7.10;99.90;;;;;;2102545;28;20063;-70
2022/01/05 01:04:04;;;;;;;2.45;2.13;;;7.10;99.90;;;;;;2091097;28;20413;-69
2022/01/05 01:05:05;;;;;;;2.28;2.03;;;7.10;99.90;;;;;;2102138;28;20029;-69
2022/01/05 01:06:06;;;;;;;2.53;2.00;;;7.10;99.90;;;;;;2099412;28;20032;-69
2022/01/05 01:07:07;;;;;;;2.10;1.90;;;7.00;99.90;;;;;;2102256;28;20028;-70
2022/01/05 01:08:09;;;;;;;3.30;1.98;;;7.00;99.90;;;;;;2107135;28;20075;-69
2022/01/05 01:09:10;;;;;;;2.72;1.90;;;7.00;99.90;;;;;;2093629;28;20029;-69
2022/01/05 01:10:11;;;;;;;2.00;1.80;;;7.00;99.90;;;;;;2091172;28;20064;-70
2022/01/05 01:11:12;;;;;;;2.28;1.90;;;7.00;99.90;;;;;;2102394;28;20082;-69
2022/01/05 01:12:13;;;;;;;2.17;1.98;;;7.00;99.90;;;;;;2100551;28;20338;-69
2022/01/05 01:13:16;;;;;;;3.72;2.05;;;7.00;99.90;;;;;;2101249;28;20104;-68
2022/01/05 01:14:17;;;;;;;2.33;2.00;;;7.00;99.90;;;;;;2099948;28;20028;-68
2022/01/05 01:15:18;;;;;;;2.20;2.00;;;7.00;99.90;;;;;;2093100;28;20757;-68
2022/01/05 01:16:22;;;;;;;2.10;1.80;;;7.00;99.90;;;;;;2100496;28;20434;-70
2022/01/05 01:17:23;;;;;;;1.80;1.70;;;7.00;99.90;;;;;;2099501;28;20413;-70
2022/01/05 01:18:24;;;;;;;1.90;1.70;;;6.90;99.90;;;;;;2103393;28;20020;-69
2022/01/05 01:19:25;;;;;;;3.42;1.75;;;6.90;99.90;;;;;;2097556;28;20185;-70
2022/01/05 01:20:25;;;;;;;2.58;1.90;;;6.90;99.90;;;;;;2100798;28;20375;-68
2022/01/05 01:21:26;;;;;;;2.00;1.80;;;6.90;99.90;;;;;;2103874;28;20445;-69
2022/01/05 01:22:29;;;;;;;2.17;1.60;;;6.90;99.90;;;;;;2109639;28;20019;-68
2022/01/05 01:23:30;;;;;;;1.65;1.52;;;6.80;99.90;;;;;;2103450;28;20024;-69
2022/01/05 01:24:33;;;;;;;2.13;1.65;;;6.80;99.90;;;;;;2089329;28;20575;-69
2022/01/05 01:25:35;;;;;;;2.20;1.77;;;6.80;99.90;;;;;;2090783;28;20029;-69
2022/01/05 01:26:35;;;;;;;1.90;1.70;;;6.80;99.90;;;;;;2101863;28;20016;-70
2022/01/05 01:27:40;;;;;;;1.70;1.60;;;6.80;99.90;;;;;;2102956;28;20111;-69
2022/01/05 01:28:40;;;;;;;2.72;1.80;;;6.80;99.90;;;;;;2110623;28;20072;-69
2022/01/05 01:29:41;;;;;;;2.00;1.80;;;6.80;99.90;;;;;;2110003;28;20020;-69
2022/01/05 01:30:42;;;;;;;2.53;1.70;;;6.80;99.90;;;;;;2103459;28;20035;-69
2022/01/05 01:31:43;;;;;;;2.13;1.85;;;6.80;99.90;;;;;;2105986;28;20031;-68
2022/01/05 01:32:44;;;;;;;1.90;1.70;;;6.80;99.90;;;;;;2106622;28;20016;-70
2022/01/05 01:33:45;;;;;;;1.90;1.70;;;6.80;99.90;;;;;;2102142;28;20040;-70
2022/01/05 01:34:45;;;;;;;2.30;1.70;;;6.80;99.90;;;;;;2103584;28;20016;-70
2022/01/05 01:35:46;;;;;;;2.35;1.70;;;6.80;99.90;;;;;;2101396;28;20511;-70
2022/01/05 01:36:47;;;;;;;1.90;1.80;;;6.80;99.90;;;;;;2104133;28;20047;-69
2022/01/05 01:37:48;;;;;;;2.13;1.80;;;6.80;99.90;;;;;;2100971;28;20031;-69
2022/01/05 01:38:49;;;;;;;1.80;1.60;;;6.80;99.90;;;;;;2103713;28;20035;-71
2022/01/05 01:39:49;;;;;;;1.88;1.70;;;6.80;99.90;;;;;;2105969;28;20060;-68
2022/01/05 01:40:50;;;;;;;1.90;1.80;;;6.80;99.90;;;;;;2106007;28;20017;-69
2022/01/05 01:41:51;;;;;;;2.00;1.80;;;6.80;99.90;;;;;;2105766;28;20467;-69
2022/01/05 01:42:51;;;;;;;2.47;1.80;;;6.80;99.90;;;;;;2105384;28;20077;-69
2022/01/05 01:43:52;;;;;;;1.90;1.77;;;6.80;99.90;;;;;;2105414;28;20020;-69
2022/01/05 01:44:52;;;;;;;1.80;1.70;;;6.80;99.90;;;;;;2105700;28;20038;-69
2022/01/05 01:45:53;;;;;;;1.70;1.60;;;6.80;99.90;;;;;;2106084;28;20024;-70
2022/01/05 01:46:54;;;;;;;2.15;1.95;;;6.80;99.90;;;;;;2105990;28;20051;-69
2022/01/05 01:47:54;;;;;;;1.65;1.55;;;6.80;99.90;;;;;;2105501;28;20704;-69
2022/01/05 01:48:55;;;;;;;2.03;1.63;;;6.80;99.90;;;;;;2105133;28;20024;-72
2022/01/05 01:49:56;;;;;;;2.53;1.70;;;6.80;99.90;;;;;;2114084;28;20437;-68
2022/01/05 01:50:57;;;;;;;2.17;1.58;;;6.80;99.90;;;;;;2105655;28;20024;-70
2022/01/05 01:51:57;;;;;;;1.50;1.40;;;6.80;99.90;;;;;;2105194;28;20035;-71
2022/01/05 01:52:59;;;;;;;1.83;1.60;;;6.80;99.90;;;;;;2106085;28;20507;-69
2022/01/05 01:54:00;;;;;;;1.70;1.60;;;6.80;99.90;;;;;;2113836;28;20024;-69
2022/01/05 01:55:02;;;;;;;2.40;2.20;;;6.80;99.90;;;;;;2113825;28;20042;-68
2022/01/05 01:56:05;;;;;;;2.20;2.00;;;6.80;99.90;;;;;;2105916;28;20778;-69
2022/01/05 01:57:06;;;;;;;1.85;1.63;;;6.80;99.90;;;;;;2106063;28;20040;-68
2022/01/05 01:58:07;;;;;;;2.20;1.90;;;6.80;99.90;;;;;;2105390;28;20502;-70
2022/01/05 01:59:08;;;;;;;1.80;1.70;;;6.80;99.90;;;;;;2104608;28;20040;-68
2022/01/05 02:00:10;;;;;;;1.83;1.58;;;6.90;99.90;;;;;;2105255;28;20028;-68
2022/01/05 02:01:14;;;;;;;1.77;1.60;;;6.90;99.90;;;;;;2105708;28;20065;-69
2022/01/05 02:02:16;;;;;;;1.50;1.40;;;6.90;99.90;;;;;;2105737;28;20024;-68
2022/01/05 02:03:17;;;;;;;1.88;1.65;;;6.90;99.90;;;;;;2105414;28;20811;-68
2022/01/05 02:04:18;;;;;;;2.10;1.60;;;6.90;99.90;;;;;;2105370;28;20048;-68
2022/01/05 02:05:18;;;;;;;1.88;1.50;;;6.90;99.90;;;;;;2105110;28;20024;-68
2022/01/05 02:06:19;;;;;;;1.60;1.50;;;6.90;99.90;;;;;;2105399;28;20039;-68
2022/01/05 02:07:19;;;;;;;1.83;1.55;;;6.90;99.90;;;;;;2106212;28;20024;-68
2022/01/05 02:08:20;;;;;;;1.70;1.50;;;6.90;99.90;;;;;;2105666;28;20048;-69
2022/01/05 02:09:21;;;;;;;1.85;1.50;;;6.90;99.90;;;;;;2105009;28;20044;-69
2022/01/05 02:10:21;;;;;;;1.60;1.50;;;7.00;99.90;;;;;;2105568;28;20028;-69
2022/01/05 02:11:22;;;;;;;1.52;1.42;;;6.90;99.90;;;;;;2105787;28;20035;-68
2022/01/05 02:12:26;;;;;;;1.63;1.52;;;7.00;99.90;;;;;;2105600;28;20064;-69
2022/01/05 02:13:27;;;;;;;1.50;1.40;;;7.00;99.90;;;;;;2105372;28;20020;-70
2022/01/05 02:14:27;;;;;;;1.80;1.70;;;6.90;99.90;;;;;;2105074;28;20024;-70
2022/01/05 02:15:28;;;;;;;1.70;1.60;;;7.00;99.90;;;;;;2113918;28;20486;-69
2022/01/05 02:16:31;;;;;;;2.15;1.70;;;6.90;99.90;;;;;;2113930;28;20045;-68
2022/01/05 02:17:45;;;;;;;1.88;1.67;;;6.90;99.90;;;;;;2113822;28;20078;-67
2022/01/05 02:18:58;;;;;;;1.80;1.70;;;6.90;99.90;;;;;;2111369;28;20058;-69
2022/01/05 02:19:59;;;;;;;1.88;1.70;;;6.90;99.90;;;;;;2105837;28;20040;-71
2022/01/05 02:21:01;;;;;;;1.67;1.58;;;6.90;99.90;;;;;;2105961;28;20107;-69
2022/01/05 02:22:03;;;;;;;2.15;1.70;;;6.90;99.90;;;;;;2105846;28;20085;-70
2022/01/05 02:23:04;;;;;;;2.13;1.67;;;6.90;99.90;;;;;;2106727;28;20036;-69
2022/01/05 02:24:07;;;;;;;1.40;1.30;;;6.90;99.90;;;;;;2106227;28;20032;-69
2022/01/05 02:25:07;;;;;;;1.58;1.48;;;6.90;99.90;;;;;;2106404;28;20032;-69
2022/01/05 02:26:10;;;;;;;1.55;1.45;;;6.90;99.90;;;;;;2106871;28;20567;-70
2022/01/05 02:27:11;;;;;;;1.98;1.50;;;6.90;99.90;;;;;;2113782;28;20093;-69
2022/01/05 02:28:13;;;;;;;1.70;1.60;;;6.90;99.90;;;;;;2113545;28;20030;-69
2022/01/05 02:29:13;;;;;;;1.70;1.60;;;6.90;99.90;;;;;;2105165;28;20020;-69
2022/01/05 02:30:19;;;;;;;1.60;1.50;;;6.90;99.90;;;;;;2105773;28;20548;-69
2022/01/05 02:31:20;;;;;;;1.70;1.60;;;6.90;99.90;;;;;;2104969;28;20779;-69
2022/01/05 02:32:20;;;;;;;1.85;1.73;;;6.90;99.90;;;;;;2104674;28;20036;-69
2022/01/05 02:33:22;;;;;;;1.52;1.42;;;6.90;99.90;;;;;;2103893;28;20027;-70
2022/01/05 02:34:22;;;;;;;1.85;1.52;;;6.90;99.90;;;;;;2104879;28;20024;-69
2022/01/05 02:35:24;;;;;;;1.60;1.50;;;6.90;99.90;;;;;;2104406;28;20439;-70
2022/01/05 02:36:25;;;;;;;2.08;1.60;;;6.90;99.90;;;;;;2104995;28;20044;-69
2022/01/05 02:37:26;;;;;;;1.50;1.40;;;6.90;99.90;;;;;;2105041;28;20032;-69
2022/01/05 02:38:27;;;;;;;1.65;1.55;;;6.90;99.90;;;;;;2104643;28;20554;-69
2022/01/05 02:39:27;;;;;;;1.60;1.50;;;6.90;99.90;;;;;;2103713;28;20027;-68
2022/01/05 02:40:28;;;;;;;1.70;1.60;;;6.90;99.90;;;;;;2104578;28;20036;-68
2022/01/05 02:41:29;;;;;;;2.25;1.80;;;6.90;99.90;;;;;;2104646;28;20035;-68
2022/01/05 02:42:30;;;;;;;2.47;2.00;;;6.90;99.90;;;;;;2096479;28;20028;-68
2022/01/05 02:43:30;;;;;;;1.80;1.70;;;7.00;99.90;;;;;;2104757;28;20054;-69
2022/01/05 02:44:31;;;;;;;1.90;1.70;;;7.00;99.90;;;;;;2104800;28;20128;-69
2022/01/05 02:45:31;;;;;;;1.70;1.60;;;7.00;99.90;;;;;;2088252;28;20108;-71
2022/01/05 02:46:34;;;;;;;1.73;1.63;;;7.00;99.90;;;;;;2096595;28;20032;-68
2022/01/05 02:47:35;;;;;;;1.75;1.65;;;7.00;99.90;;;;;;2105468;28;20070;-68
2022/01/05 02:48:36;;;;;;;1.85;1.70;;;7.00;99.90;;;;;;2104248;28;20388;-69
2022/01/05 02:49:37;;;;;;;1.60;1.50;;;7.00;99.90;;;;;;2104901;28;20062;-68
2022/01/05 02:50:38;;;;;;;1.60;1.50;;;7.00;99.90;;;;;;2105731;28;20101;-69
2022/01/05 02:51:38;;;;;;;1.77;1.50;;;7.00;99.90;;;;;;2105785;28;20028;-70
2022/01/05 02:52:39;;;;;;;2.05;1.70;;;7.00;99.90;;;;;;2105936;28;20035;-69
2022/01/05 02:53:40;;;;;;;1.73;1.63;;;7.00;99.90;;;;;;2105737;28;20032;-69
2022/01/05 02:54:42;;;;;;;1.90;1.70;;;7.00;99.90;;;;;;2105515;28;20016;-70
2022/01/05 02:55:42;;;;;;;1.70;1.60;;;6.90;99.90;;;;;;2105768;28;20840;-71
2022/01/05 02:56:43;;;;;;;2.20;1.90;;;7.00;99.90;;;;;;2105849;28;20081;-71
2022/01/05 02:57:43;;;;;;;2.85;2.10;;;7.00;99.90;;;;;;2105885;28;20028;-69
2022/01/05 02:58:44;;;;;;;2.83;2.10;;;6.90;99.90;;;;;;2104905;28;20547;-69
2022/01/05 02:59:45;;;;;;;2.42;1.80;;;6.90;99.90;;;;;;2097276;28;20503;-69
2022/01/05 03:00:45;;;;;;;2.53;2.00;;;6.90;99.90;;;;;;2106402;28;20032;-69
2022/01/05 03:01:47;;;;;;;3.03;2.20;;;6.90;99.90;;;;;;2106573;28;20040;-69
2022/01/05 03:02:47;;;;;;;2.60;1.85;;;6.90;99.90;;;;;;2107724;28;20028;-69
2022/01/05 03:03:48;;;;;;;2.55;2.00;;;6.90;99.90;;;;;;2106877;28;20604;-69
2022/01/05 03:04:48;;;;;;;2.53;2.10;;;6.90;99.90;;;;;;2106443;28;20066;-69
2022/01/05 03:05:49;;;;;;;2.75;1.88;;;6.80;99.90;;;;;;2106179;28;20030;-71
2022/01/05 03:06:50;;;;;;;3.15;2.00;;;6.90;99.90;;;;;;2106255;28;20081;-71
2022/01/05 03:07:50;;;;;;;2.13;1.80;;;6.80;99.90;;;;;;2105693;28;20031;-69
2022/01/05 03:08:51;;;;;;;2.15;1.88;;;6.80;99.90;;;;;;2105218;28;20095;-68
2022/01/05 03:09:51;;;;;;;3.53;2.00;;;6.90;99.90;;;;;;2105840;28;20035;-68
2022/01/05 03:10:52;;;;;;;2.50;1.90;;;6.80;99.90;;;;;;2105658;28;20180;-69
2022/01/05 03:11:53;;;;;;;1.85;1.70;;;6.80;99.90;;;;;;2104546;28;20027;-69
2022/01/05 03:12:54;;;;;;;2.63;1.90;;;6.80;99.90;;;;;;2104816;28;20024;-69
2022/01/05 03:13:54;;;;;;;2.92;1.75;;;6.80;99.90;;;;;;2105457;28;20035;-68
2022/01/05 03:14:55;;;;;;;2.03;1.60;;;6.80;99.90;;;;;;2105427;28;20039;-70
2022/01/05 03:15:56;;;;;;;2.30;1.80;;;6.90;99.90;;;;;;2105389;28;20032;-70
2022/01/05 03:16:57;;;;;;;4.25;1.67;;;6.90;99.90;;;;;;2104621;28;20038;-71
2022/01/05 03:17:57;;;;;;;1.85;1.73;;;6.90;99.90;;;;;;2105245;28;20031;-69
2022/01/05 03:18:58;;;;;;;2.85;1.90;;;6.90;99.90;;;;;;2104621;28;20028;-70
2022/01/05 03:19:59;;;;;;;2.47;1.60;;;6.80;99.90;;;;;;2104534;28;20105;-70
2022/01/05 03:20:59;;;;;;;13.48;9.52;;;6.80;99.90;;;;;;2105333;28;20135;-70
2022/01/05 03:22:00;;;;;;;4.90;3.85;;;6.80;99.90;;;;;;2106376;28;20077;-69
2022/01/05 03:23:03;;;;;;;1.52;1.23;;;6.80;99.90;;;;;;2107257;28;20036;-69
2022/01/05 03:24:04;;;;;;;1.85;1.30;;;6.80;99.90;;;;;;2107356;28;20070;-69
2022/01/05 03:25:06;;;;;;;1.45;1.30;;;6.80;99.90;;;;;;2106559;28;20039;-70
2022/01/05 03:26:07;;;;;;;1.50;1.35;;;6.70;99.90;;;;;;2098114;28;20495;-69
2022/01/05 03:27:08;;;;;;;1.40;1.30;;;6.70;99.90;;;;;;2089972;28;20036;-68
2022/01/05 03:28:09;;;;;;;1.30;1.10;;;6.70;99.90;;;;;;2098096;28;20063;-69
2022/01/05 03:29:09;;;;;;;1.30;1.20;;;6.70;99.90;;;;;;2106043;28;20370;-71
2022/01/05 03:30:11;;;;;;;1.38;1.10;;;6.70;99.90;;;;;;2115041;28;20028;-69
2022/01/05 03:31:12;;;;;;;1.30;1.20;;;6.70;99.90;;;;;;2106352;28;20032;-67
2022/01/05 03:32:13;;;;;;;1.42;1.10;;;6.70;99.90;;;;;;2098032;28;20037;-68
2022/01/05 03:33:20;;;;;;;2.05;1.13;;;6.70;99.90;;;;;;2106786;28;20033;-68
2022/01/05 03:34:20;;;;;;;1.40;1.10;;;6.70;99.90;;;;;;2107315;28;20026;-69
2022/01/05 03:35:21;;;;;;;1.45;1.00;;;6.70;99.90;;;;;;2106759;28;20438;-67
2022/01/05 03:36:22;;;;;;;1.20;1.10;;;6.70;99.90;;;;;;2098424;28;20055;-69
2022/01/05 03:37:22;;;;;;;1.10;1.00;;;6.70;99.90;;;;;;2098731;28;20036;-67
2022/01/05 03:38:24;;;;;;;1.45;0.90;;;6.70;99.90;;;;;;2106614;28;20044;-68
2022/01/05 03:39:24;;;;;;;1.02;1.00;;;6.70;99.90;;;;;;2105831;28;20446;-66
2022/01/05 03:40:25;;;;;;;2.50;1.10;;;6.70;99.90;;;;;;2098389;28;20039;-69
2022/01/05 03:41:26;;;;;;;1.27;1.00;;;6.70;99.90;;;;;;2106404;28;20119;-67
2022/01/05 03:42:26;;;;;;;1.02;1.00;;;6.70;99.90;;;;;;2106581;28;20028;-67
2022/01/05 03:43:27;;;;;;;1.20;1.10;;;6.70;99.90;;;;;;2098149;28;20040;-69
2022/01/05 03:44:28;;;;;;;1.58;1.00;;;6.70;99.90;;;;;;2106689;28;20525;-68
2022/01/05 03:45:29;;;;;;;1.63;0.90;;;6.70;99.90;;;;;;2098341;28;20067;-69
2022/01/05 03:46:30;;;;;;;1.02;1.00;;;6.70;99.90;;;;;;2106752;28;20062;-69
2022/01/05 03:47:31;;;;;;;0.90;0.90;;;6.70;99.90;;;;;;2106659;28;20047;-68
2022/01/05 03:48:32;;;;;;;1.00;1.00;;;6.70;99.90;;;;;;2098161;28;20499;-69
2022/01/05 03:49:32;;;;;;;0.80;0.80;;;6.70;99.90;;;;;;2106058;28;20027;-68
2022/01/05 03:50:33;;;;;;;0.93;0.93;;;6.70;99.90;;;;;;2106483;28;20032;-70
2022/01/05 03:51:34;;;;;;;0.80;0.80;;;6.80;99.90;;;;;;2106864;28;20123;-70
2022/01/05 03:52:34;;;;;;;0.82;0.82;;;6.70;99.90;;;;;;2107287;28;20131;-71
2022/01/05 03:53:35;;;;;;;0.80;0.80;;;6.80;99.90;;;;;;2106780;28;20090;-70
2022/01/05 03:54:36;;;;;;;1.00;1.00;;;6.80;99.90;;;;;;2106636;28;20024;-70
2022/01/05 03:55:38;;;;;;;1.95;1.00;;;6.80;99.90;;;;;;2107039;28;20025;-70
2022/01/05 03:56:38;;;;;;;1.08;0.98;;;6.80;99.90;;;;;;2107101;28;20530;-69
2022/01/05 03:57:39;;;;;;;0.80;0.80;;;6.80;99.90;;;;;;2106793;28;20039;-67
2022/01/05 03:58:40;;;;;;;0.93;0.90;;;6.80;99.90;;;;;;2106396;28;20024;-68
2022/01/05 03:59:40;;;;;;;1.15;0.98;;;6.80;99.90;;;;;;2106334;28;20036;-69
2022/01/05 04:00:47;;;;;;;0.80;0.80;;;6.80;99.90;;;;;;2098145;28;20012;-68
2022/01/05 04:01:47;;;;;;;0.98;0.90;;;6.90;99.90;;;;;;2106470;28;20028;-70
2022/01/05 04:02:48;;;;;;;1.00;0.88;;;6.90;99.90;;;;;;2107041;28;20024;-67
2022/01/05 04:03:49;;;;;;;0.88;0.80;;;6.80;99.90;;;;;;2106673;28;20051;-67
2022/01/05 04:04:49;;;;;;;0.88;0.82;;;6.90;99.90;;;;;;2106288;28;20051;-67
2022/01/05 04:05:50;;;;;;;0.90;0.90;;;6.90;99.90;;;;;;2106569;28;20036;-68
2022/01/05 04:06:51;;;;;;;1.17;1.00;;;6.90;99.90;;;;;;2106229;28;20028;-68
2022/01/05 04:07:51;;;;;;;0.80;0.80;;;6.80;99.90;;;;;;2097840;28;20032;-68
2022/01/05 04:08:52;;;;;;;0.90;0.90;;;6.90;99.90;;;;;;2105678;28;20024;-67
2022/01/05 04:09:52;;;;;;;0.90;0.90;;;6.90;99.90;;;;;;2106884;28;20032;-67
2022/01/05 04:10:53;;;;;;;1.00;1.00;;;6.80;99.90;;;;;;2107198;28;20051;-68
2022/01/05 04:11:54;;;;;;;1.20;0.85;;;6.80;99.90;;;;;;2106275;28;20111;-68
2022/01/05 04:12:54;;;;;;;1.70;1.58;;;6.90;99.90;;;;;;2097875;28;20036;-67
2022/01/05 04:13:55;;;;;;;1.08;1.08;;;6.80;99.90;;;;;;2098277;28;20071;-67
2022/01/05 04:14:56;;;;;;;1.10;1.00;;;6.80;99.90;;;;;;2106270;28;20023;-69
2022/01/05 04:15:56;;;;;;;0.82;0.82;;;6.80;99.90;;;;;;2106747;28;20028;-67
2022/01/05 04:16:57;;;;;;;2.15;1.95;;;6.80;99.90;;;;;;2106834;28;20024;-67
2022/01/05 04:17:58;;;;;;;1.70;1.60;;;6.80;99.90;;;;;;2106886;28;20028;-68
2022/01/05 04:18:58;;;;;;;1.30;1.20;;;6.80;99.90;;;;;;2106178;28;20036;-68
2022/01/05 04:19:59;;;;;;;0.93;0.90;;;6.80;99.90;;;;;;2106022;28;20055;-68
2022/01/05 04:20:59;;;;;;;0.80;0.80;;;6.80;99.90;;;;;;2106198;28;20024;-68
2022/01/05 04:22:00;;;;;;;1.60;0.90;;;6.80;99.90;;;;;;2106483;28;20024;-69
2022/01/05 04:23:01;;;;;;;0.85;0.85;;;6.80;99.90;;;;;;2106701;28;20032;-69
2022/01/05 04:24:02;;;;;;;0.80;0.80;;;6.80;99.90;;;;;;2106704;28;20134;-68
2022/01/05 04:25:03;;;;;;;1.00;0.90;;;6.80;99.90;;;;;;2097644;28;20032;-68
2022/01/05 04:26:04;;;;;;;0.90;0.82;;;6.80;99.90;;;;;;2097814;28;20021;-69
2022/01/05 04:27:04;;;;;;;0.70;0.70;;;6.80;99.90;;;;;;2106219;28;20036;-69
2022/01/05 04:28:05;;;;;;;1.33;0.82;;;6.80;99.90;;;;;;2106075;28;20055;-69
2022/01/05 04:29:06;;;;;;;2.17;0.90;;;6.80;99.90;;;;;;2105471;28;20093;-69
2022/01/05 04:30:08;;;;;;;0.88;0.80;;;6.80;99.90;;;;;;2105914;28;20028;-70
2022/01/05 04:31:09;;;;;;;0.80;0.80;;;6.80;99.90;;;;;;2106378;28;20032;-70
2022/01/05 04:32:10;;;;;;;1.75;0.77;;;6.80;99.90;;;;;;2106248;28;20059;-69
2022/01/05 04:33:10;;;;;;;0.80;0.80;;;6.80;99.90;;;;;;2105164;28;20130;-69
2022/01/05 04:34:11;;;;;;;0.70;0.70;;;6.80;99.90;;;;;;2105873;28;20054;-68
2022/01/05 04:35:14;;;;;;;0.80;0.80;;;6.80;99.90;;;;;;2106531;28;20032;-69
2022/01/05 04:36:14;;;;;;;0.63;0.63;;;6.80;99.90;;;;;;2105919;28;20092;-69
2022/01/05 04:37:15;;;;;;;0.80;0.70;;;6.90;99.90;;;;;;2106048;28;20032;-69
2022/01/05 04:38:16;;;;;;;0.60;0.60;;;6.90;99.90;;;;;;2105821;28;20032;-69
2022/01/05 04:39:16;;;;;;;0.68;0.68;;;6.90;99.90;;;;;;2096777;28;20562;-69
2022/01/05 04:40:17;;;;;;;0.75;0.75;;;6.90;99.90;;;;;;2105950;28;20155;-69
2022/01/05 04:41:17;;;;;;;0.70;0.70;;;6.90;99.90;;;;;;2105746;28;20028;-70
2022/01/05 04:42:18;;;;;;;0.60;0.60;;;6.90;99.90;;;;;;2105706;28;20068;-69
2022/01/05 04:43:19;;;;;;;0.70;0.70;;;6.90;99.90;;;;;;2106609;28;20127;-68
2022/01/05 04:44:19;;;;;;;0.88;0.88;;;6.80;99.90;;;;;;2106159;28;20031;-70
2022/01/05 04:45:20;;;;;;;0.55;0.55;;;6.80;99.90;;;;;;2106200;28;20035;-67
2022/01/05 04:46:21;;;;;;;0.60;0.60;;;6.90;99.90;;;;;;2106513;28;20028;-66
2022/01/05 04:47:22;;;;;;;0.57;0.57;;;6.90;99.90;;;;;;2106885;28;20048;-70
2022/01/05 04:48:22;;;;;;;0.60;0.60;;;6.90;99.90;;;;;;2106598;28;20073;-70
2022/01/05 04:49:23;;;;;;;0.70;0.70;;;6.80;99.90;;;;;;2105957;28;20541;-69
2022/01/05 04:50:24;;;;;;;0.60;0.60;;;6.90;99.90;;;;;;2106401;28;20028;-69
2022/01/05 04:51:24;;;;;;;1.42;0.70;;;6.90;99.90;;;;;;2106597;28;20096;-69
2022/01/05 04:52:25;;;;;;;0.60;0.60;;;6.90;99.90;;;;;;2106568;28;20069;-70
2022/01/05 04:53:26;;;;;;;0.60;0.60;;;6.90;99.90;;;;;;2106783;28;20075;-70
2022/01/05 04:54:26;;;;;;;0.90;0.63;;;6.90;99.90;;;;;;2106760;28;20633;-68
2022/01/05 04:55:27;;;;;;;0.98;0.70;;;6.90;99.90;;;;;;2106458;28;20032;-70
2022/01/05 04:56:27;;;;;;;0.60;0.60;;;6.90;99.90;;;;;;2106305;28;20039;-68
2022/01/05 04:57:28;;;;;;;0.70;0.70;;;6.90;99.90;;;;;;2105850;28;20403;-69
2022/01/05 04:58:29;;;;;;;0.60;0.60;;;6.90;99.90;;;;;;2105697;28;20024;-69
2022/01/05 04:59:29;;;;;;;0.70;0.70;;;6.90;99.90;;;;;;2105742;28;20758;-69
2022/01/05 05:00:30;;;;;;;0.70;0.70;;;6.90;99.90;;;;;;2106279;28;20073;-69
2022/01/05 05:01:30;;;;;;;0.73;0.73;;;6.90;99.90;;;;;;2106063;28;20064;-68
2022/01/05 05:02:31;;;;;;;0.70;0.70;;;6.90;99.90;;;;;;2106383;28;20066;-69
2022/01/05 05:03:31;;;;;;;0.70;0.70;;;6.90;99.90;;;;;;2097426;28;20067;-68
2022/01/05 05:04:32;;;;;;;0.60;0.60;;;6.90;99.90;;;;;;2097072;28;20481;-68
2022/01/05 05:05:34;;;;;;;0.70;0.70;;;6.90;99.90;;;;;;2105819;28;20564;-69
2022/01/05 05:06:35;;;;;;;0.60;0.60;;;6.90;99.90;;;;;;2105688;28;20278;-69
2022/01/05 05:07:36;;;;;;;0.60;0.60;;;6.90;99.90;;;;;;2105728;28;20514;-70
2022/01/05 05:08:36;;;;;;;0.70;0.70;;;6.90;99.90;;;;;;2105856;28;20107;-70
2022/01/05 05:09:37;;;;;;;0.70;0.65;;;6.90;99.90;;;;;;2106138;28;20028;-69
2022/01/05 05:10:37;;;;;;;0.60;0.60;;;6.90;99.90;;;;;;2106467;28;20078;-69
2022/01/05 05:11:38;;;;;;;0.63;0.60;;;6.90;99.90;;;;;;2106121;28;20031;-67
2022/01/05 05:12:38;;;;;;;0.98;0.70;;;6.90;99.90;;;;;;2105745;28;20122;-68
2022/01/05 05:13:39;;;;;;;0.95;0.60;;;6.90;99.90;;;;;;2105805;28;20031;-69
2022/01/05 05:14:40;;;;;;;0.70;0.70;;;6.90;99.90;;;;;;2106518;28;20503;-68
2022/01/05 05:15:41;;;;;;;0.60;0.60;;;6.90;99.90;;;;;;2106408;28;20038;-68
2022/01/05 05:16:41;;;;;;;1.10;0.60;;;6.90;99.90;;;;;;2105848;28;20021;-69
2022/01/05 05:17:42;;;;;;;0.80;0.70;;;6.90;99.90;;;;;;2105640;28;20042;-68
2022/01/05 05:18:43;;;;;;;0.73;0.70;;;6.80;99.90;;;;;;2105560;28;20024;-70
2022/01/05 05:19:43;;;;;;;0.70;0.70;;;6.90;99.90;;;;;;2106558;28;20543;-69
2022/01/05 05:20:44;;;;;;;0.80;0.80;;;6.90;99.90;;;;;;2106457;28;20063;-69
2022/01/05 05:21:45;;;;;;;2.45;1.40;;;6.90;99.90;;;;;;2106053;28;20099;-69
2022/01/05 05:22:46;;;;;;;1.42;1.33;;;6.80;99.90;;;;;;2106212;28;20035;-69